Time;durP1;ratioP1;P1;durP2;ratioP2;P2;SDS_P1;SDS_P2;PMS_P1;PMS_P2;Temp;Humidity;BMP_temperature;BMP_pressure;BME280_temperature;BME280_humidity;BME280_pressure;Samples;Min_cycle;Max_cycle;Signal;HPM_P1;HPM_P2
2021/03/17 00:00:23;;;;;;;7.30;4.50;;;7.20;61.30;;;;;;4996651;28;20107;-69
2021/03/17 00:02:49;;;;;;;6.00;4.40;;;7.30;61.30;;;;;;4999315;28;20080;-69
2021/03/17 00:05:20;;;;;;;7.18;4.38;;;7.20;61.30;;;;;;5032025;28;20025;-70
2021/03/17 00:07:46;;;;;;;9.82;4.82;;;7.30;61.20;;;;;;5038962;28;20025;-68
2021/03/17 00:10:14;;;;;;;8.15;5.18;;;7.30;61.10;;;;;;5027806;28;20036;-70
2021/03/17 00:12:40;;;;;;;12.65;5.97;;;7.30;61.00;;;;;;5035933;28;20036;-69
2021/03/17 00:15:06;;;;;;;9.73;4.70;;;7.40;60.80;;;;;;5029609;28;20033;-68
2021/03/17 00:17:32;;;;;;;7.43;4.82;;;7.40;61.00;;;;;;5036819;28;20112;-69
2021/03/17 00:19:58;;;;;;;11.50;5.57;;;7.40;60.70;;;;;;5045132;28;20110;-69
2021/03/17 00:22:23;;;;;;;14.50;5.38;;;7.40;60.50;;;;;;5051515;28;20063;-69
2021/03/17 00:24:49;;;;;;;7.05;4.95;;;7.50;60.30;;;;;;5037037;28;20077;-69
2021/03/17 00:27:14;;;;;;;7.47;5.40;;;7.60;60.00;;;;;;5043477;28;20029;-68
2021/03/17 00:29:40;;;;;;;8.82;5.15;;;7.60;60.00;;;;;;5042787;28;20097;-69
2021/03/17 00:32:06;;;;;;;11.02;5.50;;;7.50;59.90;;;;;;5050341;28;20025;-68
2021/03/17 00:34:32;;;;;;;9.18;5.32;;;7.50;59.90;;;;;;5041067;28;20082;-68
2021/03/17 00:36:57;;;;;;;10.23;4.55;;;7.50;59.80;;;;;;5046310;28;20388;-70
2021/03/17 00:39:23;;;;;;;9.13;5.15;;;7.40;60.10;;;;;;5037339;28;20032;-68
2021/03/17 00:41:49;;;;;;;10.77;5.40;;;7.40;60.20;;;;;;5042983;28;20163;-68
2021/03/17 00:44:15;;;;;;;12.05;5.40;;;7.40;60.20;;;;;;5051342;28;20225;-68
2021/03/17 00:46:40;;;;;;;9.60;5.35;;;7.40;60.00;;;;;;5042184;28;20039;-68
2021/03/17 00:49:06;;;;;;;10.27;6.25;;;7.40;60.10;;;;;;5042295;28;20409;-68
2021/03/17 00:51:31;;;;;;;14.40;6.00;;;7.40;60.10;;;;;;5045618;28;20033;-68
2021/03/17 00:53:57;;;;;;;11.15;6.32;;;7.40;60.20;;;;;;5050149;28;20469;-68
2021/03/17 00:56:23;;;;;;;8.18;5.78;;;7.40;60.20;;;;;;5048829;28;20037;-68
2021/03/17 00:58:48;;;;;;;11.85;6.32;;;7.40;60.20;;;;;;5046533;28;20032;-67
2021/03/17 01:01:14;;;;;;;10.95;6.38;;;7.30;60.30;;;;;;5042272;28;20113;-70
2021/03/17 01:03:40;;;;;;;10.45;6.07;;;7.30;60.40;;;;;;5039665;28;20025;-68
2021/03/17 01:06:05;;;;;;;10.38;6.57;;;7.40;60.40;;;;;;5040490;28;20393;-69
2021/03/17 01:08:31;;;;;;;10.18;5.82;;;7.30;60.80;;;;;;5046614;28;20059;-69
2021/03/17 01:10:57;;;;;;;9.52;5.68;;;7.20;60.80;;;;;;5042525;28;20025;-69
2021/03/17 01:13:22;;;;;;;10.18;6.03;;;7.30;61.00;;;;;;5047825;28;20082;-68
2021/03/17 01:15:48;;;;;;;13.55;5.72;;;7.20;61.00;;;;;;5046115;28;20079;-68
2021/03/17 01:18:14;;;;;;;11.85;5.82;;;7.20;61.30;;;;;;5036725;28;20037;-68
2021/03/17 01:20:40;;;;;;;10.60;6.00;;;7.20;61.00;;;;;;5042949;28;20034;-68
2021/03/17 01:23:06;;;;;;;10.90;5.40;;;7.30;61.00;;;;;;5048191;28;20481;-68
2021/03/17 01:25:37;;;;;;;11.65;5.72;;;7.20;61.20;;;;;;5033826;28;20079;-68
2021/03/17 01:28:05;;;;;;;9.05;5.80;;;7.20;61.30;;;;;;5040444;28;20029;-68
2021/03/17 01:30:35;;;;;;;9.90;5.43;;;7.10;61.70;;;;;;5043209;28;20409;-68
2021/03/17 01:33:01;;;;;;;8.85;5.43;;;7.10;61.80;;;;;;5044029;28;20090;-69
2021/03/17 01:35:27;;;;;;;10.95;5.68;;;7.00;62.10;;;;;;5047380;28;20438;-68
2021/03/17 01:37:54;;;;;;;8.70;5.88;;;7.00;62.20;;;;;;5038430;28;20182;-68
2021/03/17 01:40:23;;;;;;;9.40;5.40;;;7.00;62.20;;;;;;5046937;28;20056;-68
2021/03/17 01:42:49;;;;;;;7.93;5.05;;;7.00;62.20;;;;;;5045644;28;20086;-68
2021/03/17 01:45:16;;;;;;;11.68;5.30;;;7.00;62.40;;;;;;5049516;28;20060;-68
2021/03/17 01:47:43;;;;;;;10.02;5.63;;;7.00;62.50;;;;;;5044874;28;20040;-68
2021/03/17 01:50:14;;;;;;;9.70;4.97;;;7.00;62.30;;;;;;5042222;28;20039;-68
2021/03/17 01:52:40;;;;;;;11.98;5.88;;;7.00;62.50;;;;;;5037134;28;20034;-68
2021/03/17 01:55:07;;;;;;;10.43;5.90;;;6.90;62.60;;;;;;5049593;28;20474;-68
2021/03/17 01:57:34;;;;;;;11.15;5.90;;;6.90;62.60;;;;;;5051540;28;20032;-68
2021/03/17 02:00:00;;;;;;;9.27;5.32;;;6.80;62.50;;;;;;5034387;28;20398;-69
2021/03/17 02:02:27;;;;;;;9.93;5.65;;;6.90;62.30;;;;;;5045689;28;20101;-68
2021/03/17 02:04:53;;;;;;;6.18;4.70;;;6.90;62.30;;;;;;5047037;28;20474;-67
2021/03/17 02:07:18;;;;;;;10.45;5.43;;;6.90;62.40;;;;;;5039404;28;20221;-67
2021/03/17 02:09:44;;;;;;;9.20;5.22;;;6.80;62.60;;;;;;5052717;28;21352;-67
2021/03/17 02:12:42;;;;;;;8.63;5.20;;;6.80;62.90;;;;;;5052551;28;20083;-68
2021/03/17 02:15:23;;;;;;;10.52;4.70;;;6.80;63.10;;;;;;5048943;28;20486;-67
2021/03/17 02:17:49;;;;;;;7.45;4.93;;;6.70;63.30;;;;;;5039855;28;20025;-67
2021/03/17 02:20:30;;;;;;;8.98;5.88;;;6.70;63.50;;;;;;5049793;28;20060;-68
2021/03/17 02:23:17;;;;;;;12.05;5.30;;;6.70;63.50;;;;;;5041068;28;20053;-68
2021/03/17 02:26:26;;;;;;;8.05;5.10;;;6.70;63.20;;;;;;5053180;28;20488;-68
2021/03/17 02:29:02;;;;;;;8.15;4.97;;;6.70;63.40;;;;;;5050620;28;20028;-68
2021/03/17 02:31:47;;;;;;;8.50;5.43;;;6.60;64.20;;;;;;5041465;28;20053;-68
2021/03/17 02:34:19;;;;;;;10.80;5.38;;;6.50;64.40;;;;;;5028544;28;20036;-69
2021/03/17 02:36:58;;;;;;;8.32;5.20;;;6.50;64.40;;;;;;5034762;28;20033;-68
2021/03/17 02:39:53;;;;;;;8.25;5.40;;;6.60;64.10;;;;;;5034964;28;20206;-68
2021/03/17 02:42:28;;;;;;;9.82;5.60;;;6.70;63.90;;;;;;5027741;28;20041;-68
2021/03/17 02:45:05;;;;;;;9.50;5.85;;;6.60;64.00;;;;;;5051056;28;20029;-68
2021/03/17 02:47:35;;;;;;;9.88;5.97;;;6.50;64.40;;;;;;5036267;28;20026;-68
2021/03/17 02:50:05;;;;;;;8.50;5.50;;;6.40;64.70;;;;;;5036947;28;20021;-68
2021/03/17 02:52:35;;;;;;;9.38;6.10;;;6.40;64.50;;;;;;5037442;28;20056;-68
2021/03/17 02:55:02;;;;;;;8.18;6.22;;;6.50;64.30;;;;;;5046808;28;20029;-70
2021/03/17 02:57:33;;;;;;;10.77;6.20;;;6.50;64.50;;;;;;5054101;28;20025;-69
2021/03/17 03:00:01;;;;;;;10.20;6.28;;;6.40;64.20;;;;;;5051800;28;20078;-68
2021/03/17 03:02:28;;;;;;;11.60;6.88;;;6.50;64.40;;;;;;5044192;28;20036;-68
2021/03/17 03:04:55;;;;;;;9.85;6.72;;;6.40;64.40;;;;;;5053673;28;20025;-67
2021/03/17 03:07:22;;;;;;;9.65;6.93;;;6.40;64.30;;;;;;5051942;28;20126;-67
2021/03/17 03:09:53;;;;;;;9.48;6.30;;;6.40;64.20;;;;;;5036380;28;20155;-67
2021/03/17 03:12:19;;;;;;;13.73;6.88;;;6.40;64.20;;;;;;5046950;28;20033;-67
2021/03/17 03:14:45;;;;;;;11.25;6.60;;;6.30;64.30;;;;;;5053527;28;20029;-68
2021/03/17 03:17:13;;;;;;;8.98;6.78;;;6.30;64.60;;;;;;5052649;28;20108;-68
2021/03/17 03:19:44;;;;;;;10.30;6.28;;;6.30;64.70;;;;;;5051710;28;20021;-66
2021/03/17 03:22:12;;;;;;;13.52;6.47;;;6.30;64.60;;;;;;5033309;28;20030;-68
2021/03/17 03:24:39;;;;;;;11.13;6.85;;;6.30;65.00;;;;;;5032493;28;20100;-68
2021/03/17 03:27:05;;;;;;;10.07;6.63;;;6.30;64.90;;;;;;5032953;28;20034;-68
2021/03/17 03:29:33;;;;;;;11.57;6.65;;;6.30;65.10;;;;;;5034348;28;20104;-68
2021/03/17 03:32:03;;;;;;;11.48;7.05;;;6.20;65.30;;;;;;5047741;28;20030;-68
2021/03/17 03:34:29;;;;;;;9.60;6.40;;;6.20;65.60;;;;;;5032336;28;20446;-69
2021/03/17 03:36:55;;;;;;;10.20;6.82;;;6.20;65.50;;;;;;5039434;28;20036;-68
2021/03/17 03:39:21;;;;;;;15.13;6.20;;;6.20;65.60;;;;;;5032033;28;20082;-68
2021/03/17 03:41:46;;;;;;;12.60;6.72;;;6.20;65.60;;;;;;5046324;28;20045;-68
2021/03/17 03:44:12;;;;;;;10.60;7.00;;;6.20;65.70;;;;;;5042166;28;20465;-68
2021/03/17 03:46:38;;;;;;;10.68;6.90;;;6.10;65.80;;;;;;5034522;28;20037;-68
2021/03/17 03:49:05;;;;;;;8.05;6.47;;;6.10;65.80;;;;;;5032220;28;20026;-68
2021/03/17 03:51:33;;;;;;;9.95;6.40;;;6.20;65.60;;;;;;5034427;28;20078;-66
2021/03/17 03:54:21;;;;;;;12.10;6.68;;;6.10;65.70;;;;;;5049893;28;20029;-67
2021/03/17 03:57:05;;;;;;;9.52;6.45;;;6.10;65.50;;;;;;5054986;28;20072;-68
2021/03/17 03:59:38;;;;;;;10.02;7.30;;;6.10;65.60;;;;;;5053584;28;20108;-68
2021/03/17 04:02:08;;;;;;;11.80;6.75;;;6.20;65.60;;;;;;5047798;28;20108;-69
2021/03/17 04:04:40;;;;;;;9.75;6.78;;;6.10;65.90;;;;;;5047517;28;20043;-68
2021/03/17 04:07:07;;;;;;;10.82;6.90;;;6.10;65.80;;;;;;5046336;28;20063;-69
2021/03/17 04:09:44;;;;;;;8.57;6.00;;;6.10;65.70;;;;;;5033950;28;20537;-68
2021/03/17 04:12:12;;;;;;;11.93;6.13;;;6.10;65.70;;;;;;5047985;28;20036;-69
2021/03/17 04:14:39;;;;;;;12.63;6.70;;;6.00;65.90;;;;;;5048761;28;20025;-67
2021/03/17 04:17:14;;;;;;;8.38;6.25;;;6.00;66.20;;;;;;5032737;28;20025;-67
2021/03/17 04:19:43;;;;;;;9.80;6.80;;;5.90;66.60;;;;;;5033676;28;20022;-67
2021/03/17 04:22:10;;;;;;;13.65;6.57;;;5.90;66.30;;;;;;5041643;28;20397;-68
2021/03/17 04:24:39;;;;;;;9.73;6.57;;;6.00;66.00;;;;;;5051124;28;20049;-67
2021/03/17 04:27:08;;;;;;;12.65;6.65;;;6.00;66.20;;;;;;5042917;28;20025;-67
2021/03/17 04:29:35;;;;;;;11.88;7.38;;;5.90;66.40;;;;;;5052140;28;20025;-67
2021/03/17 04:32:03;;;;;;;16.63;7.45;;;6.00;67.10;;;;;;5047829;28;20108;-68
2021/03/17 04:34:30;;;;;;;13.98;7.25;;;5.90;66.40;;;;;;5044393;28;20025;-68
2021/03/17 04:36:57;;;;;;;11.43;8.25;;;6.00;66.40;;;;;;5041370;28;20037;-67
2021/03/17 04:39:23;;;;;;;12.88;7.75;;;6.10;66.10;;;;;;5031952;28;20029;-67
2021/03/17 04:41:49;;;;;;;12.65;8.07;;;6.00;65.90;;;;;;5032105;28;20025;-68
2021/03/17 04:44:15;;;;;;;9.88;7.35;;;6.00;66.00;;;;;;5039631;28;20029;-68
2021/03/17 04:46:42;;;;;;;9.85;7.70;;;6.00;66.10;;;;;;5038678;28;20037;-68
2021/03/17 04:49:09;;;;;;;10.52;7.45;;;6.00;65.90;;;;;;5035296;28;20378;-70
2021/03/17 04:51:37;;;;;;;12.25;7.47;;;6.00;65.70;;;;;;5040634;28;20021;-67
2021/03/17 04:54:03;;;;;;;13.88;7.25;;;6.00;65.50;;;;;;5045423;28;20029;-67
2021/03/17 04:56:31;;;;;;;12.95;7.78;;;6.00;65.50;;;;;;5050767;28;20077;-67
2021/03/17 04:58:58;;;;;;;10.82;7.60;;;6.10;65.60;;;;;;5052090;28;20025;-68
2021/03/17 05:01:24;;;;;;;12.05;7.35;;;6.10;65.80;;;;;;5051462;28;20025;-68
2021/03/17 05:03:51;;;;;;;12.95;7.47;;;6.10;65.40;;;;;;5039606;28;20413;-68
2021/03/17 05:06:17;;;;;;;11.80;7.63;;;6.10;65.30;;;;;;5038981;28;20033;-68
2021/03/17 05:08:45;;;;;;;12.20;6.72;;;6.10;65.30;;;;;;5048950;28;20040;-68
2021/03/17 05:11:14;;;;;;;9.98;6.22;;;6.10;65.30;;;;;;5032120;28;20375;-68
2021/03/17 05:13:41;;;;;;;9.45;6.38;;;6.10;65.40;;;;;;5030815;28;20402;-68
2021/03/17 05:16:07;;;;;;;11.13;7.35;;;6.10;65.10;;;;;;5033968;28;20108;-67
2021/03/17 05:18:33;;;;;;;12.38;6.95;;;6.20;65.20;;;;;;5034716;28;20033;-69
2021/03/17 05:21:01;;;;;;;9.32;6.82;;;6.20;65.10;;;;;;5036842;28;20038;-67
2021/03/17 05:23:27;;;;;;;11.00;6.60;;;6.20;65.00;;;;;;5045671;28;20052;-68
2021/03/17 05:25:53;;;;;;;10.80;6.70;;;6.20;65.00;;;;;;5048451;28;20041;-69
2021/03/17 05:28:20;;;;;;;10.40;6.47;;;6.20;65.00;;;;;;5048166;28;20017;-68
2021/03/17 05:30:50;;;;;;;19.17;6.50;;;6.30;64.90;;;;;;5049769;28;20025;-67
2021/03/17 05:33:16;;;;;;;14.02;6.30;;;6.30;64.90;;;;;;5032360;28;20030;-68
2021/03/17 05:35:42;;;;;;;10.27;6.53;;;6.40;64.70;;;;;;5032240;28;20125;-69
2021/03/17 05:38:08;;;;;;;9.52;6.30;;;6.50;64.30;;;;;;5042257;28;20056;-69
2021/03/17 05:40:35;;;;;;;12.85;6.35;;;6.50;64.00;;;;;;5044918;28;20026;-68
2021/03/17 05:43:04;;;;;;;9.80;6.25;;;6.60;63.80;;;;;;5043544;22;20132;-71
2021/03/17 05:45:35;;;;;;;12.05;6.65;;;6.60;63.30;;;;;;5009971;28;20068;-71
2021/03/17 05:48:03;;;;;;;9.73;6.53;;;6.60;63.90;;;;;;5007702;28;20049;-71
2021/03/17 05:50:30;;;;;;;8.68;6.47;;;6.70;63.10;;;;;;5020491;28;20057;-72
2021/03/17 05:53:02;;;;;;;9.93;6.30;;;6.70;62.70;;;;;;5019250;28;20026;-70
2021/03/17 05:55:47;;;;;;;11.10;6.65;;;6.90;62.60;;;;;;5017334;28;20061;-71
2021/03/17 05:58:14;;;;;;;10.13;6.55;;;6.80;62.00;;;;;;5009856;28;20034;-71
2021/03/17 06:00:40;;;;;;;11.35;6.72;;;6.90;62.00;;;;;;5018613;28;20166;-70
2021/03/17 06:03:10;;;;;;;16.85;7.18;;;7.00;61.90;;;;;;5022082;28;20022;-71
2021/03/17 06:05:36;;;;;;;10.88;6.18;;;7.00;61.70;;;;;;5017493;28;20021;-71
2021/03/17 06:08:14;;;;;;;12.35;6.78;;;7.00;62.10;;;;;;5028716;28;20090;-71
2021/03/17 06:10:41;;;;;;;11.00;6.20;;;7.10;61.00;;;;;;5024301;28;20079;-72
2021/03/17 06:13:09;;;;;;;15.90;6.55;;;7.00;60.90;;;;;;5022720;28;20424;-72
2021/03/17 06:15:36;;;;;;;12.82;6.93;;;7.10;61.00;;;;;;5011233;28;20421;-68
2021/03/17 06:18:21;;;;;;;12.20;6.45;;;7.10;60.90;;;;;;5011028;28;20112;-69
2021/03/17 06:20:50;;;;;;;11.00;6.85;;;7.10;60.50;;;;;;5019213;28;20041;-68
2021/03/17 06:23:16;;;;;;;13.07;6.95;;;7.10;60.50;;;;;;5028719;28;20037;-68
2021/03/17 06:25:44;;;;;;;10.88;7.03;;;7.20;60.30;;;;;;5022900;28;20524;-69
2021/03/17 06:28:12;;;;;;;12.88;6.43;;;7.30;60.00;;;;;;5021064;28;20072;-70
2021/03/17 06:30:38;;;;;;;11.75;6.85;;;7.30;59.70;;;;;;5014056;28;20029;-70
2021/03/17 06:33:13;;;;;;;13.23;6.72;;;7.40;59.40;;;;;;5022361;28;20025;-69
2021/03/17 06:35:39;;;;;;;12.20;6.20;;;7.40;59.30;;;;;;5019491;28;20130;-69
2021/03/17 06:38:05;;;;;;;10.30;5.93;;;7.50;59.10;;;;;;5025865;28;20049;-68
2021/03/17 06:40:34;;;;;;;9.57;5.75;;;7.60;58.90;;;;;;5030748;28;20426;-67
2021/03/17 06:43:12;;;;;;;12.40;6.13;;;7.70;58.50;;;;;;5031705;28;20045;-69
2021/03/17 06:45:48;;;;;;;9.48;6.32;;;7.80;58.20;;;;;;5026785;28;20044;-70
2021/03/17 06:48:24;;;;;;;11.90;6.68;;;7.90;57.30;;;;;;5015735;28;20418;-68
2021/03/17 06:51:08;;;;;;;14.77;6.40;;;7.90;57.10;;;;;;5028914;28;20033;-68
2021/03/17 06:53:51;;;;;;;11.80;6.43;;;7.90;57.30;;;;;;5033547;28;20021;-69
2021/03/17 06:56:30;;;;;;;11.55;6.53;;;7.90;57.30;;;;;;5033524;28;20044;-77
2021/03/17 06:59:00;;;;;;;12.27;6.72;;;8.00;57.00;;;;;;5032739;28;20478;-67
2021/03/17 07:01:32;;;;;;;16.02;7.13;;;8.10;56.60;;;;;;5023469;28;20026;-70
2021/03/17 07:04:11;;;;;;;9.88;6.97;;;8.20;56.40;;;;;;5022504;28;20021;-68
2021/03/17 07:06:44;;;;;;;14.48;7.22;;;8.20;56.50;;;;;;5018433;28;20417;-68
2021/03/17 07:09:13;;;;;;;14.73;7.18;;;8.10;56.40;;;;;;5022404;28;20029;-68
2021/03/17 07:11:40;;;;;;;13.55;7.70;;;8.10;57.00;;;;;;5017023;28;20030;-68
2021/03/17 07:14:12;;;;;;;10.98;6.65;;;8.30;56.50;;;;;;5016124;28;20026;-69
2021/03/17 07:16:40;;;;;;;9.50;6.80;;;8.50;55.80;;;;;;5015772;28;20397;-68
2021/03/17 07:19:07;;;;;;;11.40;7.85;;;8.90;56.00;;;;;;5019639;28;20088;-67
2021/03/17 07:21:34;;;;;;;12.25;10.45;;;11.80;50.60;;;;;;5019502;28;20099;-69
2021/03/17 07:24:02;;;;;;;14.45;13.05;;;15.40;43.70;;;;;;5023568;28;20026;-67
2021/03/17 07:26:31;;;;;;;14.60;13.18;;;17.40;37.00;;;;;;5020640;28;20037;-69
2021/03/17 07:29:20;;;;;;;11.43;10.07;;;19.90;32.80;;;;;;5020390;28;20028;-69
2021/03/17 07:31:50;;;;;;;15.50;13.88;;;22.00;29.20;;;;;;5010738;28;20040;-69
2021/03/17 07:34:22;;;;;;;9.40;6.53;;;23.90;28.40;;;;;;4994998;28;20445;-68
2021/03/17 07:36:57;;;;;;;22.02;20.17;;;24.60;25.60;;;;;;5012828;28;20107;-67
2021/03/17 07:39:29;;;;;;;14.75;13.25;;;24.70;25.00;;;;;;5015497;28;20061;-72
2021/03/17 07:43:04;;;;;;;11.77;6.30;;;26.30;24.30;;;;;;5015132;28;20038;-69
2021/03/17 07:45:35;;;;;;;13.00;11.85;;;26.50;22.90;;;;;;4929857;29;20521;-68
2021/03/17 07:48:06;;;;;;;11.98;10.27;;;25.60;24.40;;;;;;4948148;29;20039;-70
2021/03/17 07:50:34;;;;;;;17.02;14.93;;;27.40;23.00;;;;;;4944907;29;20062;-71
2021/03/17 07:53:05;;;;;;;15.48;14.13;;;28.80;23.70;;;;;;4952439;28;20035;-71
2021/03/17 07:55:33;;;;;;;15.95;14.60;;;30.60;22.20;;;;;;4933277;29;20044;-68
2021/03/17 07:58:00;;;;;;;18.25;16.63;;;32.00;21.60;;;;;;4937404;28;20073;-68
2021/03/17 08:00:34;;;;;;;19.40;17.98;;;32.80;20.70;;;;;;4941659;29;20041;-68
2021/03/17 08:03:07;;;;;;;18.48;16.60;;;31.60;20.70;;;;;;4920269;29;20082;-68
2021/03/17 08:05:36;;;;;;;19.67;17.98;;;31.20;20.10;;;;;;4944586;29;20050;-69
2021/03/17 08:08:04;;;;;;;23.33;21.50;;;31.20;20.70;;;;;;4996094;22;20024;-68
2021/03/17 08:10:29;;;;;;;17.73;16.35;;;31.90;20.30;;;;;;5006420;28;20079;-66
2021/03/17 08:12:56;;;;;;;6.93;4.82;;;31.40;20.10;;;;;;5010651;28;20116;-67
2021/03/17 08:15:24;;;;;;;9.50;5.50;;;29.30;20.20;;;;;;5009819;28;20029;-67
2021/03/17 08:17:49;;;;;;;9.90;5.28;;;25.40;22.10;;;;;;5008145;28;20058;-67
2021/03/17 08:20:19;;;;;;;8.85;6.13;;;22.10;24.70;;;;;;5008038;28;20066;-67
2021/03/17 08:22:46;;;;;;;10.40;6.38;;;20.20;26.70;;;;;;5002684;28;20506;-67
2021/03/17 08:25:32;;;;;;;9.02;6.78;;;18.20;28.90;;;;;;5003525;28;20481;-70
2021/03/17 08:28:20;;;;;;;16.45;14.88;;;16.80;30.40;;;;;;4997589;28;20347;-66
2021/03/17 08:30:47;;;;;;;13.43;10.15;;;16.40;32.90;;;;;;5003817;28;20433;-66
2021/03/17 08:33:36;;;;;;;9.75;7.68;;;18.70;29.90;;;;;;5006533;28;20049;-69
2021/03/17 08:36:07;;;;;;;13.45;9.25;;;18.50;28.80;;;;;;5010475;28;20036;-67
2021/03/17 08:38:58;;;;;;;8.18;6.90;;;18.10;30.10;;;;;;4996486;28;20030;-66
2021/03/17 08:41:48;;;;;;;9.25;6.63;;;17.60;30.20;;;;;;5007458;28;20116;-67
2021/03/17 08:44:22;;;;;;;9.13;7.63;;;16.50;32.40;;;;;;5004448;28;20151;-67
2021/03/17 08:46:49;;;;;;;14.40;6.65;;;15.60;33.60;;;;;;5010384;28;20037;-66
2021/03/17 08:49:29;;;;;;;9.27;6.63;;;15.00;34.00;;;;;;5011738;28;20026;-64
2021/03/17 08:51:55;;;;;;;9.90;6.32;;;14.40;34.30;;;;;;4984484;28;20148;-72
2021/03/17 08:54:33;;;;;;;9.05;6.15;;;13.90;33.90;;;;;;5008412;28;20537;-66
2021/03/17 08:57:05;;;;;;;8.25;6.50;;;13.50;34.60;;;;;;5005060;28;20057;-69
2021/03/17 08:59:52;;;;;;;12.65;6.57;;;13.40;35.10;;;;;;5000415;28;20050;-67
2021/03/17 09:02:27;;;;;;;9.07;6.40;;;13.30;35.10;;;;;;4992498;28;20057;-61
2021/03/17 09:04:54;;;;;;;10.57;7.03;;;13.30;35.40;;;;;;5011507;28;20061;-65
2021/03/17 09:07:22;;;;;;;12.05;6.30;;;13.30;35.40;;;;;;5002142;28;20037;-66
2021/03/17 09:09:51;;;;;;;9.52;6.75;;;13.20;35.00;;;;;;4992540;28;20233;-73
2021/03/17 09:12:19;;;;;;;9.43;6.38;;;13.10;34.70;;;;;;5004489;28;20079;-75
2021/03/17 09:14:44;;;;;;;8.23;6.18;;;13.00;34.90;;;;;;5000405;28;20056;-66
2021/03/17 09:17:23;;;;;;;7.72;5.78;;;13.20;34.60;;;;;;4997390;28;20034;-66
2021/03/17 09:19:54;;;;;;;8.20;6.10;;;13.50;34.10;;;;;;5009001;28;20506;-65
2021/03/17 09:22:58;;;;;;;8.55;5.72;;;13.80;33.80;;;;;;5004151;28;20044;-65
2021/03/17 09:25:40;;;;;;;10.73;6.60;;;13.80;33.10;;;;;;4993453;28;20050;-65
2021/03/17 09:28:07;;;;;;;10.57;6.97;;;13.80;33.10;;;;;;4997692;28;20029;-66
2021/03/17 09:30:37;;;;;;;12.63;6.57;;;13.80;33.20;;;;;;4997461;28;20030;-65
2021/03/17 09:33:13;;;;;;;10.90;6.50;;;13.70;33.50;;;;;;5009648;28;20041;-67
2021/03/17 09:35:40;;;;;;;9.20;6.38;;;13.60;33.50;;;;;;5009232;28;20037;-67
2021/03/17 09:38:12;;;;;;;6.88;5.97;;;13.60;33.30;;;;;;4996906;28;20479;-67
2021/03/17 09:40:46;;;;;;;8.15;6.05;;;13.60;33.50;;;;;;5003861;28;20022;-70
2021/03/17 09:43:33;;;;;;;9.05;6.13;;;13.50;33.40;;;;;;5011828;28;20316;-65
2021/03/17 09:46:00;;;;;;;7.28;6.20;;;13.30;33.90;;;;;;4988741;28;20038;-67
2021/03/17 09:48:27;;;;;;;10.48;6.75;;;13.40;34.40;;;;;;5001227;28;20421;-68
2021/03/17 09:51:00;;;;;;;11.68;7.63;;;13.60;34.50;;;;;;5003990;28;20029;-65
2021/03/17 09:53:26;;;;;;;9.70;6.68;;;13.80;34.20;;;;;;5009951;28;20037;-67
2021/03/17 09:55:52;;;;;;;11.10;6.47;;;13.80;34.10;;;;;;5001673;28;20433;-66
2021/03/17 09:58:18;;;;;;;7.13;5.82;;;13.70;33.80;;;;;;4997093;28;20637;-67
2021/03/17 10:00:48;;;;;;;8.00;6.05;;;13.60;33.40;;;;;;5003525;28;20026;-67
2021/03/17 10:03:14;;;;;;;9.27;6.10;;;13.30;33.80;;;;;;5008540;28;20022;-66
2021/03/17 10:05:40;;;;;;;6.88;5.90;;;13.10;34.10;;;;;;4998358;28;20065;-68
2021/03/17 10:08:07;;;;;;;9.55;6.57;;;13.10;34.20;;;;;;5001747;28;20212;-68
2021/03/17 10:10:34;;;;;;;10.80;5.75;;;13.10;34.30;;;;;;5003224;28;20026;-73
2021/03/17 10:13:00;;;;;;;12.07;6.60;;;12.80;34.50;;;;;;4999613;28;20041;-64
2021/03/17 10:15:27;;;;;;;14.70;7.53;;;12.70;35.00;;;;;;5005952;28;20029;-64
2021/03/17 10:17:54;;;;;;;9.07;6.07;;;12.90;34.70;;;;;;4994833;28;20388;-66
2021/03/17 10:20:22;;;;;;;12.35;6.97;;;12.90;34.30;;;;;;5010642;28;20037;-69
2021/03/17 10:22:50;;;;;;;8.75;5.95;;;13.00;34.60;;;;;;4991676;28;20045;-62
2021/03/17 10:25:20;;;;;;;8.38;5.45;;;13.10;34.20;;;;;;5007008;28;20037;-61
2021/03/17 10:27:47;;;;;;;7.00;5.03;;;13.00;33.50;;;;;;5012987;28;20034;-63
2021/03/17 10:30:18;;;;;;;7.20;5.93;;;13.10;33.50;;;;;;5006763;28;20026;-62
2021/03/17 10:32:48;;;;;;;8.90;5.40;;;13.50;33.20;;;;;;5002638;28;20030;-73
2021/03/17 10:35:17;;;;;;;7.82;5.10;;;13.70;32.80;;;;;;4999075;28;20041;-68
2021/03/17 10:37:46;;;;;;;7.80;4.72;;;13.60;32.60;;;;;;5009314;28;20129;-70
2021/03/17 10:40:15;;;;;;;6.70;4.72;;;13.50;32.50;;;;;;5007141;28;20138;-69
2021/03/17 10:42:55;;;;;;;7.35;4.70;;;13.30;32.90;;;;;;5007889;28;20030;-70
2021/03/17 10:45:28;;;;;;;8.60;4.88;;;13.60;32.50;;;;;;4998261;28;20037;-65
2021/03/17 10:47:54;;;;;;;8.98;4.57;;;13.80;32.40;;;;;;5003807;28;20111;-72
2021/03/17 10:50:30;;;;;;;7.07;4.75;;;13.90;32.10;;;;;;4999318;28;20164;-67
2021/03/17 10:52:57;;;;;;;4.68;3.78;;;14.10;31.40;;;;;;4998511;28;20034;-64
2021/03/17 10:55:28;;;;;;;7.60;4.30;;;14.30;31.40;;;;;;5003740;28;20030;-66
2021/03/17 10:58:15;;;;;;;4.60;3.80;;;14.40;31.00;;;;;;4995879;28;20083;-67
2021/03/17 11:00:44;;;;;;;6.43;3.55;;;14.20;30.50;;;;;;5005830;28;20022;-68
2021/03/17 11:06:15;;;;;;;;;;;13.40;31.80;;;;;;4999215;28;20093;-73
2021/03/17 11:08:43;;;;;;;7.05;3.40;;;13.10;32.00;;;;;;5005999;28;20012;-67
2021/03/17 11:11:10;;;;;;;7.57;3.70;;;13.00;32.50;;;;;;5006012;28;20741;-67
2021/03/17 11:13:46;;;;;;;6.55;3.65;;;12.90;32.80;;;;;;4998916;28;20628;-71
2021/03/17 11:16:21;;;;;;;6.18;2.80;;;12.90;32.60;;;;;;4998594;28;20394;-68
2021/03/17 11:18:53;;;;;;;8.77;3.38;;;13.10;32.50;;;;;;5002613;28;20125;-68
2021/03/17 11:21:29;;;;;;;4.85;3.22;;;13.10;31.80;;;;;;4993744;28;20034;-67
2021/03/17 11:24:00;;;;;;;7.68;3.70;;;13.00;32.50;;;;;;5000504;28;20067;-72
2021/03/17 11:26:35;;;;;;;8.15;3.58;;;12.90;32.70;;;;;;4994973;28;20042;-70
2021/03/17 11:29:10;;;;;;;6.00;3.30;;;12.90;32.90;;;;;;4999670;28;20022;-71
2021/03/17 11:31:36;;;;;;;4.18;3.10;;;12.70;32.60;;;;;;5000164;28;20841;-70
2021/03/17 11:34:03;;;;;;;4.93;3.15;;;12.80;32.20;;;;;;5010725;28;20450;-67
2021/03/17 11:36:30;;;;;;;7.63;3.47;;;12.80;32.10;;;;;;5004447;28;20112;-68
2021/03/17 11:38:58;;;;;;;6.15;3.88;;;12.70;32.30;;;;;;5000924;28;20022;-66
2021/03/17 11:41:24;;;;;;;7.05;5.32;;;12.60;32.60;;;;;;5004849;28;20026;-70
2021/03/17 11:43:50;;;;;;;5.00;3.63;;;12.50;32.90;;;;;;5010539;28;20096;-68
2021/03/17 11:46:17;;;;;;;5.75;3.85;;;12.40;32.90;;;;;;5008502;28;20045;-68
2021/03/17 11:48:44;;;;;;;4.55;3.58;;;12.30;33.40;;;;;;4997676;28;20041;-72
2021/03/17 11:51:10;;;;;;;6.10;3.42;;;12.20;33.40;;;;;;5001783;28;20022;-68
2021/03/17 11:53:37;;;;;;;9.00;4.32;;;12.20;33.40;;;;;;5012944;28;20026;-69
2021/03/17 11:56:04;;;;;;;6.95;3.90;;;12.00;33.90;;;;;;4996294;28;20026;-71
2021/03/17 11:58:30;;;;;;;6.80;3.55;;;11.90;34.30;;;;;;4996837;28;20034;-71
2021/03/17 12:00:56;;;;;;;8.30;4.85;;;11.70;35.00;;;;;;5002743;28;20563;-70
2021/03/17 12:03:22;;;;;;;8.98;5.57;;;11.60;35.40;;;;;;5004520;28;20101;-68
2021/03/17 12:05:48;;;;;;;6.80;4.68;;;11.70;35.70;;;;;;4996220;28;20084;-71
2021/03/17 12:08:15;;;;;;;8.23;5.20;;;11.60;35.80;;;;;;4994781;28;20092;-74
2021/03/17 12:10:41;;;;;;;6.72;5.43;;;11.60;36.30;;;;;;4994922;28;20042;-74
2021/03/17 12:13:07;;;;;;;9.88;6.10;;;11.50;36.70;;;;;;4997311;28;20038;-77
2021/03/17 12:15:33;;;;;;;7.68;5.20;;;11.40;37.10;;;;;;5003548;28;20033;-73
2021/03/17 12:17:59;;;;;;;8.25;5.60;;;11.30;37.00;;;;;;5004175;28;20037;-72
2021/03/17 12:20:28;;;;;;;12.27;5.57;;;11.40;37.10;;;;;;5004921;28;20360;-75
2021/03/17 12:22:54;;;;;;;8.48;5.15;;;11.50;36.90;;;;;;5010621;28;20425;-76
2021/03/17 12:25:22;;;;;;;9.45;5.70;;;11.60;36.90;;;;;;5005275;28;21383;-75
2021/03/17 12:27:48;;;;;;;8.00;6.00;;;11.60;36.80;;;;;;4991803;28;20124;-72
2021/03/17 12:30:16;;;;;;;7.20;5.38;;;11.90;36.80;;;;;;5009123;28;20037;-70
2021/03/17 12:32:43;;;;;;;8.65;6.03;;;12.10;36.30;;;;;;5002193;28;20026;-66
2021/03/17 12:35:12;;;;;;;8.43;5.93;;;12.10;36.10;;;;;;4995548;28;20038;-65
2021/03/17 12:37:42;;;;;;;9.95;5.53;;;12.00;36.40;;;;;;5003288;28;20030;-65
2021/03/17 12:40:10;;;;;;;8.98;5.95;;;11.90;36.70;;;;;;5011434;28;20030;-70
2021/03/17 12:42:36;;;;;;;12.05;6.03;;;11.90;37.20;;;;;;5006487;28;20062;-68
2021/03/17 12:45:07;;;;;;;12.30;6.10;;;11.80;37.30;;;;;;5003477;28;20050;-67
2021/03/17 12:47:34;;;;;;;8.57;6.22;;;11.70;37.30;;;;;;5005794;28;20101;-64
2021/03/17 12:50:00;;;;;;;7.75;6.10;;;11.70;37.20;;;;;;5007991;28;20022;-70
2021/03/17 12:52:26;;;;;;;9.85;6.88;;;11.80;37.30;;;;;;4996550;28;20042;-69
2021/03/17 12:54:52;;;;;;;17.83;6.95;;;11.80;37.30;;;;;;5003474;28;20886;-71
2021/03/17 12:57:17;;;;;;;8.23;6.60;;;11.80;37.20;;;;;;4997428;28;20117;-70
2021/03/17 12:59:43;;;;;;;10.30;6.45;;;11.70;37.20;;;;;;5000098;28;20350;-74
2021/03/17 13:02:10;;;;;;;7.63;6.13;;;11.60;37.60;;;;;;5002734;28;20037;-69
2021/03/17 13:04:37;;;;;;;8.70;6.40;;;11.40;37.80;;;;;;5004852;28;20040;-68